Terminal Aerodrome Forecast
Issued by NWS

Home | Current Version | Previous Version | Text Only | Print | Product List | Glossary Off
Versions: 1 2 3 4 5 6 7 8 9 10 11 12 13 14 15 16 17

000
FTUS44 KLZK 082300
TAFLIT
TAF
KLIT 082340Z 0900/0924 23005KT P6SM BKN040
      TEMPO 0901/0905 3SM TSRA BR OVC025CB
     FM090500 32003KT P6SM VCSH SCT025 BKN050
      TEMPO 0905/0909 5SM -SHRA BR BKN025
     FM091200 34003KT P6SM BKN080
     FM091500 34006KT P6SM BKN040=

USA.gov is the U.S. government's official web portal to all federal, state and local government web resources and services.